createdAt,value
2023-03-29T00:01:00.182Z,96725.34
2023-03-29T00:03:28.413Z,96723.28
2023-03-29T00:06:02.968Z,96750.22
2023-03-29T00:08:32.262Z,96704.78
2023-03-29T00:10:59.727Z,96744.94
2023-03-29T00:13:27.434Z,96743.38
2023-03-29T00:15:54.706Z,96743.66
2023-03-29T00:18:21.450Z,96717.84
2023-03-29T00:20:57.270Z,96701.34
2023-03-29T00:23:25.083Z,96736.03
2023-03-29T00:25:55.687Z,96640.69
2023-03-29T00:28:22.980Z,96748.22
2023-03-29T00:30:53.321Z,96698.00
2023-03-29T00:33:20.915Z,96756.63
2023-03-29T00:35:48.507Z,96745.63
2023-03-29T00:38:15.744Z,96721.63
2023-03-29T00:40:49.494Z,96750.44
2023-03-29T00:43:17.618Z,96743.63
2023-03-29T00:45:44.522Z,96755.47
2023-03-29T00:48:13.567Z,96729.63
2023-03-29T00:50:48.807Z,96779.81
2023-03-29T00:53:33.845Z,96795.78
2023-03-29T00:56:06.372Z,96792.03
2023-03-29T00:59:00.106Z,96785.88
2023-03-29T01:01:42.362Z,96777.53
2023-03-29T01:04:22.533Z,96792.09
2023-03-29T01:06:59.141Z,96750.53
2023-03-29T01:09:30.392Z,96787.66
2023-03-29T01:12:01.661Z,96750.81
2023-03-29T01:14:33.915Z,96770.31
2023-03-29T01:17:01.132Z,96747.03
2023-03-29T01:19:34.758Z,96767.91
2023-03-29T01:22:08.910Z,96729.94
2023-03-29T01:24:41.940Z,96748.47
2023-03-29T01:27:17.229Z,96735.75
2023-03-29T01:29:57.268Z,96704.72
2023-03-29T01:32:36.605Z,96723.38
2023-03-29T01:35:13.322Z,96720.81
2023-03-29T01:37:48.129Z,96664.81
2023-03-29T01:40:15.554Z,96658.34
2023-03-29T01:42:58.681Z,96699.06
2023-03-29T01:45:36.686Z,96643.50
2023-03-29T01:48:36.394Z,96642.22
2023-03-29T01:51:10.079Z,96664.94
2023-03-29T01:53:43.255Z,96648.50
2023-03-29T01:56:22.924Z,96659.22
2023-03-29T01:58:54.960Z,96612.84
2023-03-29T02:01:26.174Z,96639.75
2023-03-29T02:03:59.479Z,96656.97
2023-03-29T02:06:28.194Z,96599.81
2023-03-29T02:08:55.841Z,96652.31
2023-03-29T02:11:26.965Z,96648.66
2023-03-29T02:13:54.063Z,96632.97
2023-03-29T02:16:20.933Z,96632.28
2023-03-29T02:18:50.300Z,96640.41
2023-03-29T02:21:25.507Z,96615.56
2023-03-29T02:23:55.788Z,96602.50
2023-03-29T02:26:24.014Z,96628.84
2023-03-29T02:28:51.970Z,96611.13
2023-03-29T02:31:19.052Z,96630.78
2023-03-29T02:33:53.310Z,96588.06
2023-03-29T02:36:23.688Z,96623.78
2023-03-29T02:38:52.814Z,96582.06
2023-03-29T02:41:20.743Z,96588.25
2023-03-29T02:43:49.013Z,96617.03
2023-03-29T02:46:18.485Z,96552.09
2023-03-29T02:48:46.914Z,96612.38
2023-03-29T02:51:26.723Z,96593.59
2023-03-29T02:54:09.781Z,96582.97
2023-03-29T02:56:55.189Z,96610.13
2023-03-29T02:59:24.726Z,96600.50
2023-03-29T03:01:52.761Z,96614.56
2023-03-29T03:04:22.980Z,96563.72
2023-03-29T03:06:49.676Z,96606.22
2023-03-29T03:09:16.373Z,96570.75
2023-03-29T03:11:45.672Z,96544.66
2023-03-29T03:14:12.452Z,96579.34
2023-03-29T03:16:39.268Z,96587.41
2023-03-29T03:19:06.986Z,96563.22
2023-03-29T03:21:35.219Z,96572.34
2023-03-29T03:24:01.991Z,96540.88
2023-03-29T03:26:30.196Z,96585.44
2023-03-29T03:28:58.283Z,96587.25
2023-03-29T03:31:53.794Z,96546.59
2023-03-29T03:34:39.079Z,96563.81
2023-03-29T03:37:06.022Z,96585.09
2023-03-29T03:39:34.466Z,96574.09
2023-03-29T03:42:03.142Z,96485.22
2023-03-29T03:44:30.544Z,96577.53
2023-03-29T03:47:17.203Z,96581.63
2023-03-29T03:49:43.956Z,96561.06
2023-03-29T03:52:11.304Z,96583.50
2023-03-29T03:54:38.120Z,96547.78
2023-03-29T03:57:24.747Z,96559.50
2023-03-29T03:59:52.932Z,96538.66
2023-03-29T04:02:28.410Z,96555.81
2023-03-29T04:04:55.268Z,96538.16
2023-03-29T04:07:29.127Z,96559.06
2023-03-29T04:10:04.705Z,96561.94
2023-03-29T04:12:41.417Z,96543.19
2023-03-29T04:15:10.508Z,96566.63
2023-03-29T04:17:39.751Z,96536.41
2023-03-29T04:20:25.633Z,96571.34
2023-03-29T04:22:52.630Z,96511.13
2023-03-29T04:25:22.405Z,96572.06
2023-03-29T04:27:50.841Z,96536.34
2023-03-29T04:30:37.876Z,96552.00
2023-03-29T04:33:21.250Z,96552.56
2023-03-29T04:35:54.576Z,96552.50
2023-03-29T04:38:23.355Z,96541.88
2023-03-29T04:40:51.679Z,96522.56
2023-03-29T04:43:40.099Z,96554.13
2023-03-29T04:46:26.858Z,96499.94
2023-03-29T04:49:29.080Z,96531.25
2023-03-29T04:51:55.981Z,96539.88
2023-03-29T04:54:27.336Z,96518.25
2023-03-29T04:57:00.220Z,96528.91
2023-03-29T04:59:45.722Z,96515.13
2023-03-29T05:02:33.234Z,96529.13
2023-03-29T05:05:00.241Z,96473.66
2023-03-29T05:07:26.990Z,96512.22
2023-03-29T05:09:53.882Z,96505.22
2023-03-29T05:12:21.265Z,96489.56
2023-03-29T05:14:52.492Z,96492.94
2023-03-29T05:17:21.774Z,96517.41
2023-03-29T05:19:49.512Z,96520.59
2023-03-29T05:22:16.598Z,96534.69
2023-03-29T05:24:43.558Z,96485.72
2023-03-29T05:27:15.245Z,96522.22
2023-03-29T05:29:44.825Z,96441.22
2023-03-29T05:32:40.533Z,96495.94
2023-03-29T05:35:09.795Z,96503.75
2023-03-29T05:37:36.956Z,96482.88
2023-03-29T05:40:08.241Z,96509.69
2023-03-29T05:42:47.278Z,96501.88
2023-03-29T05:45:16.082Z,96519.09
2023-03-29T05:47:42.845Z,96522.00
2023-03-29T05:50:10.270Z,96520.13
2023-03-29T05:52:38.610Z,96512.91
2023-03-29T05:55:06.057Z,96483.72
2023-03-29T05:57:36.425Z,96459.03
2023-03-29T06:00:14.722Z,96471.25
2023-03-29T06:02:41.906Z,96486.06
2023-03-29T06:05:09.349Z,96519.94
2023-03-29T06:07:40.165Z,96498.88
2023-03-29T06:10:37.427Z,96491.88
2023-03-29T06:13:22.703Z,96517.41
2023-03-29T06:15:49.307Z,96493.97
2023-03-29T06:18:16.651Z,96490.03
2023-03-29T06:20:43.290Z,96430.97
2023-03-29T06:23:13.986Z,96484.88
2023-03-29T06:25:40.714Z,96518.19
2023-03-29T06:28:07.640Z,96520.50
2023-03-29T06:30:35.096Z,96479.91
2023-03-29T06:33:02.007Z,96472.09
2023-03-29T06:35:47.226Z,96493.16
2023-03-29T06:38:17.177Z,96478.06
2023-03-29T06:41:00.660Z,96496.56
2023-03-29T06:43:31.687Z,96501.03
2023-03-29T06:46:12.132Z,96478.38
2023-03-29T06:48:53.333Z,96469.00
2023-03-29T06:51:23.379Z,96477.06
2023-03-29T06:53:50.859Z,96471.09
2023-03-29T06:56:17.683Z,96473.19
2023-03-29T06:58:54.577Z,96437.50
2023-03-29T07:01:47.358Z,96482.81
2023-03-29T07:04:22.339Z,96503.38
2023-03-29T07:07:27.603Z,96466.38
2023-03-29T07:10:09.417Z,96488.53
2023-03-29T07:12:55.106Z,96499.72
2023-03-29T07:15:22.378Z,96484.09
2023-03-29T07:18:21.096Z,96480.47
2023-03-29T07:20:48.429Z,96478.91
2023-03-29T07:23:15.373Z,96509.09
2023-03-29T07:25:42.186Z,96490.34
2023-03-29T07:28:09.508Z,96468.25
2023-03-29T07:30:37.223Z,96486.97
2023-03-29T07:33:13.367Z,96508.31
2023-03-29T07:35:48.032Z,96486.69
2023-03-29T07:38:15.606Z,96497.09
2023-03-29T07:40:47.638Z,96499.13
2023-03-29T07:43:34.228Z,96491.88
2023-03-29T07:46:02.401Z,96488.97
2023-03-29T07:48:30.127Z,96524.31
2023-03-29T07:51:01.486Z,96485.28
2023-03-29T07:53:33.718Z,96512.25
2023-03-29T07:56:03.846Z,96486.75
2023-03-29T07:58:49.964Z,96491.25
2023-03-29T08:01:19.785Z,96496.38
2023-03-29T08:04:12.850Z,96519.19
2023-03-29T08:06:58.274Z,96491.50
2023-03-29T08:09:43.285Z,96515.22
2023-03-29T08:12:10.070Z,96461.56
2023-03-29T08:14:38.573Z,96443.81
2023-03-29T08:17:19.280Z,96498.53
2023-03-29T08:19:51.214Z,96525.59
2023-03-29T08:22:23.950Z,96519.34
2023-03-29T08:25:12.400Z,96469.38
2023-03-29T08:27:44.729Z,96498.16
2023-03-29T08:30:14.930Z,96496.75
2023-03-29T08:32:41.769Z,96474.63
2023-03-29T08:35:09.842Z,96518.50
2023-03-29T08:38:05.622Z,96475.16
2023-03-29T08:40:34.356Z,96517.56
2023-03-29T08:43:22.642Z,96473.84
2023-03-29T08:46:34.493Z,96516.59
2023-03-29T08:49:16.998Z,96448.19
2023-03-29T08:51:52.887Z,96514.88
2023-03-29T08:54:29.334Z,96500.47
2023-03-29T08:57:16.985Z,96482.50
2023-03-29T08:59:51.395Z,96520.16
2023-03-29T09:02:24.796Z,96518.34
2023-03-29T09:05:22.630Z,96514.59
2023-03-29T09:08:01.886Z,96493.16
2023-03-29T09:10:39.557Z,96483.31
2023-03-29T09:13:13.795Z,96477.28
2023-03-29T09:15:52.941Z,96506.38
2023-03-29T09:18:51.356Z,96495.31
2023-03-29T09:21:29.252Z,96495.00
2023-03-29T09:24:14.185Z,96494.16
2023-03-29T09:27:09.441Z,96466.16
2023-03-29T09:29:41.121Z,96504.00
2023-03-29T09:32:36.464Z,96460.81
2023-03-29T09:35:18.659Z,96489.97
2023-03-29T09:37:49.071Z,96463.63
2023-03-29T09:40:24.648Z,96463.72
2023-03-29T09:43:12.209Z,96490.47
2023-03-29T09:45:40.914Z,96413.91
2023-03-29T09:48:17.022Z,96478.56
2023-03-29T09:50:51.493Z,96464.28
2023-03-29T09:53:21.172Z,96494.13
2023-03-29T09:56:01.884Z,96460.72
2023-03-29T09:58:44.000Z,96474.47
2023-03-29T10:01:14.315Z,96469.88
2023-03-29T10:03:41.544Z,96454.47
2023-03-29T10:06:14.631Z,96484.94
2023-03-29T10:08:51.318Z,96459.81
2023-03-29T10:11:23.409Z,96484.31
2023-03-29T10:13:55.030Z,96456.72
2023-03-29T10:16:25.867Z,96463.06
2023-03-29T10:18:54.612Z,96476.13
2023-03-29T10:21:22.043Z,96456.16
2023-03-29T10:23:50.240Z,96478.97
2023-03-29T10:26:30.979Z,96444.94
2023-03-29T10:29:00.498Z,96472.13
2023-03-29T10:31:31.347Z,96443.88
2023-03-29T10:34:02.820Z,96418.31
2023-03-29T10:36:30.352Z,96443.88
2023-03-29T10:39:01.270Z,96475.31
2023-03-29T10:41:32.809Z,96477.38
2023-03-29T10:44:01.483Z,96465.94
2023-03-29T10:46:32.968Z,96467.16
2023-03-29T10:49:06.286Z,96459.97
2023-03-29T10:51:34.470Z,96418.94
2023-03-29T10:54:02.466Z,96438.81
2023-03-29T10:56:40.284Z,96463.94
2023-03-29T10:59:42.460Z,96452.47
2023-03-29T11:02:15.266Z,96456.31
2023-03-29T11:05:19.163Z,96442.81
2023-03-29T11:07:55.669Z,96437.25
2023-03-29T11:10:45.268Z,96431.00
2023-03-29T11:13:30.952Z,96436.59
2023-03-29T11:16:06.575Z,96441.69
2023-03-29T11:18:55.261Z,96440.91
2023-03-29T11:21:28.121Z,96438.53
2023-03-29T11:24:06.847Z,96438.97
2023-03-29T11:27:01.094Z,96415.19
2023-03-29T11:29:50.443Z,96428.59
2023-03-29T11:32:24.567Z,96426.53
2023-03-29T11:35:23.125Z,96410.91
2023-03-29T11:37:58.520Z,96427.00
2023-03-29T11:40:32.811Z,96429.66
2023-03-29T11:43:02.850Z,96344.34
2023-03-29T11:45:35.465Z,96402.88
2023-03-29T11:48:05.419Z,96428.75
2023-03-29T11:50:43.647Z,96407.84
2023-03-29T11:53:17.770Z,96432.78
2023-03-29T11:55:45.471Z,96388.53
2023-03-29T11:58:35.990Z,96425.84
2023-03-29T12:01:10.408Z,96434.47
2023-03-29T12:04:12.072Z,96437.41
2023-03-29T12:07:00.935Z,96389.63
2023-03-29T12:09:34.345Z,96429.00
2023-03-29T12:12:09.477Z,96435.56
2023-03-29T12:14:55.213Z,96428.31
2023-03-29T12:17:31.382Z,96422.34
2023-03-29T12:20:17.679Z,96406.41
2023-03-29T12:22:49.177Z,96371.94
2023-03-29T12:25:23.213Z,96352.25
2023-03-29T12:28:03.534Z,96382.25
2023-03-29T12:30:42.700Z,96424.34
2023-03-29T12:33:15.126Z,96428.00
2023-03-29T12:36:05.850Z,96416.09
2023-03-29T12:38:52.635Z,96403.06
2023-03-29T12:41:53.409Z,96405.97
2023-03-29T12:44:59.145Z,96407.09
2023-03-29T12:47:43.224Z,96426.66
2023-03-29T12:50:34.695Z,96394.91
2023-03-29T12:53:24.989Z,96402.31
2023-03-29T12:55:56.841Z,96410.13
2023-03-29T12:58:40.434Z,96381.59
2023-03-29T13:01:10.656Z,96371.06
2023-03-29T13:03:48.538Z,96389.34
2023-03-29T13:06:30.827Z,96411.22
2023-03-29T13:09:04.968Z,96405.22
2023-03-29T13:11:42.678Z,96388.25
2023-03-29T13:14:16.847Z,96351.09
2023-03-29T13:16:43.628Z,96325.63
2023-03-29T13:19:30.031Z,96350.66
2023-03-29T13:21:56.735Z,96379.06
2023-03-29T13:24:38.670Z,96383.31
2023-03-29T13:27:18.892Z,96365.19
2023-03-29T13:29:57.853Z,96388.06
2023-03-29T13:32:52.681Z,96383.31
2023-03-29T13:35:49.975Z,96360.75
2023-03-29T13:38:28.793Z,96370.59
2023-03-29T13:41:18.548Z,96380.25
2023-03-29T13:43:57.608Z,96346.97
2023-03-29T13:46:24.498Z,96382.88
2023-03-29T13:48:58.211Z,96382.16
2023-03-29T13:51:40.379Z,96373.72
2023-03-29T13:54:30.688Z,96367.94
2023-03-29T13:57:18.571Z,96375.03
2023-03-29T13:59:48.386Z,96362.19
2023-03-29T14:02:39.979Z,96359.50
2023-03-29T14:05:11.553Z,96355.91
2023-03-29T14:07:44.968Z,96363.63
2023-03-29T14:10:17.738Z,96344.75
2023-03-29T14:12:46.260Z,96346.97
2023-03-29T14:15:25.947Z,96336.84
2023-03-29T14:17:55.171Z,96323.66
2023-03-29T14:20:22.073Z,96290.38
2023-03-29T14:22:49.687Z,96339.81
2023-03-29T14:25:21.213Z,96329.09
2023-03-29T14:27:48.020Z,96344.75
2023-03-29T14:30:29.075Z,96329.59
2023-03-29T14:32:56.813Z,96318.69
2023-03-29T14:35:31.342Z,96357.88
2023-03-29T14:37:58.926Z,96343.19
2023-03-29T14:40:27.557Z,96342.19
2023-03-29T14:42:55.127Z,96355.47
2023-03-29T14:45:25.353Z,96321.78
2023-03-29T14:47:52.883Z,96326.81
2023-03-29T14:50:26.676Z,96353.94
2023-03-29T14:52:54.451Z,96340.03
2023-03-29T14:55:23.840Z,96288.66
2023-03-29T14:57:54.249Z,96334.38
2023-03-29T15:00:38.410Z,96338.09
2023-03-29T15:03:14.091Z,96338.88
2023-03-29T15:05:43.977Z,96332.03
2023-03-29T15:08:18.470Z,96336.16
2023-03-29T15:10:45.644Z,96321.28
2023-03-29T15:13:20.154Z,96361.59
2023-03-29T15:15:51.378Z,96321.97
2023-03-29T15:18:21.156Z,96310.63
2023-03-29T15:20:51.295Z,96338.22
2023-03-29T15:23:17.858Z,96340.56
2023-03-29T15:26:10.629Z,96327.53
2023-03-29T15:28:47.044Z,96299.75
2023-03-29T15:31:18.413Z,96298.31
2023-03-29T15:33:45.772Z,96302.97
2023-03-29T15:36:16.469Z,96313.34
2023-03-29T15:38:45.350Z,96277.31
2023-03-29T15:41:14.404Z,96326.06
2023-03-29T15:43:44.275Z,96300.69
2023-03-29T15:46:13.975Z,96278.16
2023-03-29T15:48:41.033Z,96299.69
2023-03-29T15:51:10.203Z,96287.66
2023-03-29T15:53:36.865Z,96310.63
2023-03-29T15:56:10.177Z,96291.72
2023-03-29T15:58:37.510Z,96306.41
2023-03-29T16:01:19.184Z,96275.06
2023-03-29T16:03:49.226Z,96247.59
2023-03-29T16:06:17.871Z,96261.72
2023-03-29T16:08:44.586Z,96285.56
2023-03-29T16:11:11.727Z,96263.81
2023-03-29T16:13:38.526Z,96284.34
2023-03-29T16:16:05.972Z,96283.78
2023-03-29T16:18:33.834Z,96238.53
2023-03-29T16:21:02.815Z,96237.00
2023-03-29T16:23:29.491Z,96263.56
2023-03-29T16:25:56.198Z,96235.97
2023-03-29T16:28:22.901Z,96276.34
2023-03-29T16:30:49.633Z,96295.09
2023-03-29T16:33:16.421Z,96275.44
2023-03-29T16:35:43.213Z,96270.00
2023-03-29T16:38:10.059Z,96299.22
2023-03-29T16:40:36.989Z,96263.63
2023-03-29T16:43:04.584Z,96274.19
2023-03-29T16:45:31.660Z,96268.44
2023-03-29T16:47:58.617Z,96270.13
2023-03-29T16:50:25.415Z,96279.59
2023-03-29T16:52:52.624Z,96293.59
2023-03-29T16:55:19.625Z,96269.59
2023-03-29T16:57:47.437Z,96295.78
2023-03-29T17:00:16.914Z,96294.28
2023-03-29T17:02:44.086Z,96293.00
2023-03-29T17:05:14.275Z,96230.16
2023-03-29T17:07:41.088Z,96243.59
2023-03-29T17:10:08.417Z,96250.03
2023-03-29T17:12:36.175Z,96273.97
2023-03-29T17:15:04.214Z,96273.88
2023-03-29T17:17:31.281Z,96258.41
2023-03-29T17:19:57.949Z,96253.38
2023-03-29T17:22:25.184Z,96242.88
2023-03-29T17:24:52.149Z,96269.75
2023-03-29T17:27:19.018Z,96285.19
2023-03-29T17:29:45.673Z,96250.56
2023-03-29T17:32:12.390Z,96246.13
2023-03-29T17:34:39.124Z,96277.75
2023-03-29T17:37:05.890Z,96127.44
2023-03-29T17:39:37.158Z,96167.88
2023-03-29T17:42:05.345Z,96211.41
2023-03-29T17:44:33.414Z,96272.63
2023-03-29T17:47:01.214Z,96279.78
2023-03-29T17:49:31.808Z,96272.78
2023-03-29T17:51:58.501Z,96287.72
2023-03-29T17:54:25.326Z,96287.06
2023-03-29T17:56:52.087Z,96244.56
2023-03-29T17:59:18.759Z,96279.06
2023-03-29T18:01:45.961Z,96247.97
2023-03-29T18:04:12.674Z,96255.72
2023-03-29T18:06:39.501Z,96267.47
2023-03-29T18:09:06.276Z,96210.19
2023-03-29T18:11:33.084Z,96250.75
2023-03-29T18:14:00.987Z,96295.03
2023-03-29T18:16:28.522Z,96266.72
2023-03-29T18:18:55.276Z,96255.47
2023-03-29T18:21:22.088Z,96248.53
2023-03-29T18:23:49.917Z,96262.00
2023-03-29T18:26:17.357Z,96278.00
2023-03-29T18:28:47.025Z,96274.13
2023-03-29T18:31:14.519Z,96284.03
2023-03-29T18:33:41.453Z,96249.31
2023-03-29T18:36:12.541Z,96285.41
2023-03-29T18:38:40.646Z,96245.69
2023-03-29T18:41:08.532Z,96246.91
2023-03-29T18:43:41.281Z,96278.00
2023-03-29T18:46:08.225Z,96255.00
2023-03-29T18:48:41.989Z,96256.22
2023-03-29T18:51:12.771Z,96289.19
2023-03-29T18:53:41.745Z,96248.06
2023-03-29T18:56:08.904Z,96212.44
2023-03-29T18:58:39.331Z,96285.06
2023-03-29T19:01:06.993Z,96224.84
2023-03-29T19:03:34.750Z,96229.50
2023-03-29T19:06:05.991Z,96259.19
2023-03-29T19:08:34.269Z,96214.63
2023-03-29T19:11:02.453Z,96281.34
2023-03-29T19:13:29.126Z,96237.69
2023-03-29T19:15:55.850Z,96242.97
2023-03-29T19:18:22.498Z,96233.06
2023-03-29T19:20:53.834Z,96209.06
2023-03-29T19:23:22.257Z,96265.91
2023-03-29T19:25:57.104Z,96244.53
2023-03-29T19:28:25.037Z,96267.13
2023-03-29T19:30:51.794Z,96241.72
2023-03-29T19:33:19.875Z,96213.72
2023-03-29T19:35:46.688Z,96177.66
2023-03-29T19:38:13.419Z,96223.47
2023-03-29T19:40:44.033Z,96235.56
2023-03-29T19:43:16.264Z,96214.94
2023-03-29T19:45:47.975Z,96253.97
2023-03-29T19:48:22.189Z,96202.56
2023-03-29T19:50:50.171Z,96220.81
2023-03-29T19:53:16.966Z,96221.09
2023-03-29T19:55:45.267Z,96232.91
2023-03-29T19:58:12.451Z,96225.59
2023-03-29T20:00:39.158Z,96213.06
2023-03-29T20:03:09.723Z,96237.22
2023-03-29T20:05:38.576Z,96234.28
2023-03-29T20:08:05.899Z,96190.50
2023-03-29T20:10:33.475Z,96224.53
2023-03-29T20:13:00.297Z,96185.38
2023-03-29T20:15:26.993Z,96143.31
2023-03-29T20:17:56.940Z,96186.31
2023-03-29T20:20:25.512Z,96171.16
2023-03-29T20:23:05.198Z,96158.78
2023-03-29T20:25:35.600Z,96216.63
2023-03-29T20:28:02.838Z,96217.91
2023-03-29T20:30:29.741Z,96193.91
2023-03-29T20:32:56.473Z,96214.81
2023-03-29T20:35:23.207Z,96126.75
2023-03-29T20:37:49.853Z,96204.59
2023-03-29T20:40:16.612Z,96102.78
2023-03-29T20:42:46.267Z,96210.47
2023-03-29T20:45:18.576Z,96197.16
2023-03-29T20:47:57.674Z,96181.84
2023-03-29T20:50:28.963Z,96204.91
2023-03-29T20:52:56.846Z,96150.25
2023-03-29T20:55:24.064Z,96191.28
2023-03-29T20:57:56.663Z,96164.50
2023-03-29T21:00:25.096Z,96168.53
2023-03-29T21:02:52.514Z,96113.13
2023-03-29T21:05:19.279Z,96157.09
2023-03-29T21:07:48.001Z,96181.53
2023-03-29T21:10:18.551Z,96184.44
2023-03-29T21:12:45.156Z,96152.75
2023-03-29T21:15:13.568Z,96174.56
2023-03-29T21:17:41.354Z,96198.25
2023-03-29T21:20:11.213Z,96183.81
2023-03-29T21:22:39.288Z,96164.81
2023-03-29T21:25:15.597Z,96182.75
2023-03-29T21:27:43.159Z,96174.69
2023-03-29T21:30:10.790Z,96181.22
2023-03-29T21:32:37.466Z,96163.56
2023-03-29T21:35:04.336Z,96156.59
2023-03-29T21:37:31.119Z,96091.78
2023-03-29T21:39:57.957Z,96134.50
2023-03-29T21:42:24.659Z,96119.63
2023-03-29T21:44:51.374Z,96131.72
2023-03-29T21:47:18.210Z,96125.03
2023-03-29T21:49:45.422Z,96090.25
2023-03-29T21:52:12.051Z,96115.47
2023-03-29T21:54:38.640Z,96135.91
2023-03-29T21:57:05.307Z,96141.59
2023-03-29T21:59:31.953Z,96116.53
2023-03-29T22:01:58.621Z,96106.94
2023-03-29T22:04:36.495Z,96096.28
2023-03-29T22:07:05.453Z,96138.22
2023-03-29T22:09:35.014Z,96136.19
2023-03-29T22:12:02.956Z,96109.28
2023-03-29T22:14:34.572Z,96087.47
2023-03-29T22:17:01.641Z,96121.03
2023-03-29T22:19:28.293Z,96075.72
2023-03-29T22:22:01.335Z,96084.22
2023-03-29T22:24:29.119Z,96122.72
2023-03-29T22:26:56.109Z,96097.50
2023-03-29T22:29:22.923Z,96093.47
2023-03-29T22:31:49.642Z,96078.31
2023-03-29T22:34:16.389Z,96092.56
2023-03-29T22:36:43.078Z,96085.13
2023-03-29T22:39:10.919Z,96101.34
2023-03-29T22:41:37.658Z,96123.31
2023-03-29T22:44:04.555Z,96098.88
2023-03-29T22:46:31.705Z,96101.50
2023-03-29T22:48:58.489Z,96130.88
2023-03-29T22:51:25.624Z,96131.66
2023-03-29T22:53:52.390Z,96088.53
2023-03-29T22:56:19.224Z,96094.09
2023-03-29T22:58:46.450Z,96110.34
2023-03-29T23:01:13.142Z,96114.34
2023-03-29T23:03:39.963Z,96111.25
2023-03-29T23:06:06.909Z,96091.78
2023-03-29T23:08:34.589Z,96100.28
2023-03-29T23:11:02.120Z,96095.19
2023-03-29T23:13:29.504Z,96039.19
2023-03-29T23:15:59.315Z,96053.28
2023-03-29T23:18:28.612Z,96031.16
2023-03-29T23:20:57.210Z,96103.53
2023-03-29T23:23:26.738Z,96078.63
2023-03-29T23:25:54.657Z,96086.38
2023-03-29T23:28:24.876Z,96084.69
2023-03-29T23:31:02.743Z,96054.03
2023-03-29T23:33:33.550Z,96073.69
2023-03-29T23:36:03.742Z,96072.59
2023-03-29T23:38:32.056Z,96058.69
2023-03-29T23:41:02.075Z,96075.38
2023-03-29T23:43:32.755Z,96045.69
2023-03-29T23:46:02.045Z,96051.56
2023-03-29T23:48:53.924Z,96042.44
2023-03-29T23:51:28.477Z,96063.91
2023-03-29T23:53:56.403Z,96018.75
2023-03-29T23:56:23.211Z,96069.81
2023-03-29T23:58:50.544Z,96068.56
